| Date | Time | Temp. (oF) | Dew Point (oF) | Rel. Hum. (%) | Press. (in.) | Wind Dir. | Wind Speed (mph) | Hourly Rainfall (in.) |
|
|---|---|---|---|---|---|---|---|---|---|
| 1 | 01/20 | 00:00 | 24 | 23 | 100 | 29.84 | N | 3 | 0.00 |
| 2 | 01/19 | 23:00 | 24 | 23 | 100 | 29.84 | ENE | 3 | 0.03 |
| 3 | 01/19 | 22:00 | 24 | 23 | 100 | 29.87 | NW | 1 | 0.03 |
| 4 | 01/19 | 21:00 | 25 | 24 | 100 | 29.89 | NW | 5 | 0.00 |
| 5 | 01/19 | 20:00 | 26 | 26 | 100 | 29.84 | NNE | 4 | 0.02 |
| 6 | 01/19 | 19:00 | 26 | 26 | 100 | 29.90 | ENE | 4 | 0.01 |
| 7 | 01/19 | 18:00 | 27 | 27 | 100 | 29.89 | NE | 6 | 0.03 |
| 8 | 01/19 | 17:00 | 27 | 27 | 100 | 29.91 | ESE | 4 | 0.04 |
| 9 | 01/19 | 16:00 | 27 | 27 | 100 | 29.91 | NE | 4 | 0.02 |
| 10 | 01/19 | 15:00 | 27 | 27 | 100 | 29.95 | NE | 4 | 0.01 |
| 11 | 01/19 | 14:00 | 27 | 27 | 100 | 30.00 | E | 4 | 0.02 |
| 12 | 01/19 | 13:00 | 27 | 27 | 100 | 30.06 | E | 4 | 0.01 |
| 13 | 01/19 | 12:00 | 27 | 26 | 99 | 30.12 | E | 4 | 0.01 |
| 14 | 01/19 | 11:00 | 26 | 24 | 94 | 30.22 | S | 1 | 0.00 |
| 15 | 01/19 | 10:00 | 28 | 17 | 65 | 30.21 | E | 1 | 0.00 |
| 16 | 01/19 | 09:00 | 27 | 18 | 69 | 30.21 | ESE | 1 | 0.00 |
| 17 | 01/19 | 08:00 | 25 | 17 | 74 | 30.23 | SE | 1 | 0.00 |
| 18 | 01/19 | 07:00 | 24 | 19 | 81 | 30.23 | ENE | 1 | 0.00 |
| 19 | 01/19 | 06:00 | 23 | 19 | 86 | 30.24 | ESE | 0 | 0.00 |
| 20 | 01/19 | 05:00 | 22 | 18 | 88 | 30.22 | ENE | 0 | 0.00 |
| 21 | 01/19 | 04:00 | 21 | 18 | 90 | 30.23 | ENE | 1 | 0.00 |
| 22 | 01/19 | 03:00 | 21 | 18 | 90 | 30.26 | SE | 2 | 0.00 |
| 23 | 01/19 | 02:00 | 20 | 17 | 88 | 30.26 | N | 0 | 0.00 |
| 24 | 01/19 | 01:00 | 20 | 16 | 85 | 30.27 | NNW | 0 | 0.00 |